Latest Weather Observations for Montague Island

IDN60801

Issued at 8:52 am EST Wednesday 18 September 2019 (issued every 10 minutes, with the page automatically refreshed every 10 minutes)

About weather observations | Map of weather stations | Latest weather observations for NSW | Other Formats
Station Details ID: 069017 Name: MONTAGUE ISLAND LIGHTHOUSE Lat: -36.25 Lon: 150.23 Height: 52.0 m
Data from the previous 72 hours. | See also: Recent months at Montague Island
Date/Time
EST
Temp
°C
App
Temp
°C
Dew
Point
°C
Rel
Hum
%
Delta-T
°C
Wind Press
QNH
hPa
Press
MSL
hPa
Rain since
9am
mm
Dir  Spd
km/h
Gust
km/h
Spd
kts
Gust
kts
18/08:30am 13.3 8.8 6.9 65 3.1 SW 20 26 11 14 1029.9 1029.9 0.4
18/08:00am 12.7 7.6 6.1 64 3.1 SW 22 28 12 15 1029.9 1029.9 0.4
18/07:30am 12.3 7.4 5.0 61 3.4 SSW 20 26 11 14 1030.0 1030.0 0.4
18/07:00am 12.1 6.9 5.5 64 3.0 SW 22 28 12 15 1029.9 1029.9 0.4
18/06:30am 12.0 6.7 5.2 63 3.1 SW 22 28 12 15 1029.7 1029.7 0.4
18/06:00am 11.9 6.6 5.1 63 3.1 SW 22 32 12 17 1029.3 1029.3 0.4
18/05:30am 11.9 5.9 5.5 65 3.0 SW 26 32 14 17 1029.0 1029.0 0.4
18/05:00am 11.8 5.4 5.2 64 3.0 SW 28 35 15 19 1028.9 1028.9 0.4
18/04:30am 11.5 4.7 4.9 64 3.0 SW 30 37 16 20 1028.7 1028.7 0.4
18/04:00am 11.6 5.2 5.3 65 2.9 SW 28 33 15 18 1028.7 1028.7 0.4
18/03:30am 11.6 5.7 5.7 67 2.7 SW 26 33 14 18 1028.6 1028.6 0.4
18/03:00am 11.4 5.1 5.7 68 2.6 SW 28 33 15 18 1028.5 1028.5 0.4
18/02:30am 11.5 4.9 6.2 70 2.5 SW 30 35 16 19 1028.7 1028.7 0.4
18/02:00am 11.3 5.2 6.8 74 2.1 SW 28 33 15 18 1028.7 1028.7 0.4
18/01:30am 11.9 7.3 6.6 70 2.5 SW 20 30 11 16 1028.7 1028.7 0.4
18/01:00am 12.2 7.5 6.0 66 2.9 S 20 28 11 15 1029.1 1029.1 0.4
18/12:30am 13.1 8.1 4.5 56 3.9 SSE 20 26 11 14 1029.3 1029.3 0.4
18/12:00am 13.0 7.8 5.7 61 3.4 SE 22 32 12 17 1029.3 1029.3 0.4
 
Date/Time
EST
Temp
°C
App
Temp
°C
Dew
Point
°C
Rel
Hum
%
Delta-T
°C
Wind Press
QNH
hPa
Press
MSL
hPa
Rain since
9am
mm
Dir  Spd
km/h
Gust
km/h
Spd
kts
Gust
kts
17/11:30pm 13.2 7.6 5.4 59 3.7 SE 24 30 13 16 1029.3 1029.3 0.4
17/11:00pm 13.3 7.8 5.7 60 3.6 SE 24 32 13 17 1029.2 1029.2 0.4
17/10:30pm 13.1 7.5 5.5 60 3.6 SE 24 32 13 17 1029.3 1029.3 0.4
17/10:00pm 12.9 7.0 5.8 62 3.3 SE 26 32 14 17 1029.3 1029.3 0.4
17/09:30pm 13.0 7.1 5.7 61 3.4 SE 26 33 14 18 1029.3 1029.3 0.4
17/09:00pm 12.9 7.3 5.6 61 3.4 ESE 24 32 13 17 1029.2 1029.2 0.4
17/08:30pm 13.0 7.1 5.9 62 3.4 ESE 26 33 14 18 1029.2 1029.2 0.4
17/08:00pm 13.1 6.8 5.5 60 3.5 ESE 28 33 15 18 1029.0 1029.0 0.4
17/07:30pm 13.1 7.0 6.5 64 3.2 ESE 28 37 15 20 1028.6 1028.6 0.4
17/07:00pm 13.1 7.0 6.7 65 3.1 ESE 28 35 15 19 1028.2 1028.2 0.4
17/06:30pm 13.0 6.5 6.4 64 3.2 ESE 30 37 16 20 1027.7 1027.7 0.4
17/06:00pm 13.0 6.1 6.6 65 3.1 ESE 32 41 17 22 1027.3 1027.3 0.4
17/05:30pm 13.0 5.7 5.4 60 3.6 SE 33 39 18 21 1027.0 1027.0 0.4
17/05:00pm 13.1 6.0 6.2 63 3.3 ESE 33 41 18 22 1026.7 1026.7 0.4
17/04:30pm 13.4 6.1 7.4 67 2.9 ESE 35 43 19 23 1026.6 1026.6 0.4
17/04:00pm 13.5 5.4 7.1 65 3.1 ESE 39 50 21 27 1026.4 1026.4 0.4
17/03:30pm 13.2 5.4 6.5 64 3.2 ESE 37 43 20 23 1026.1 1026.1 0.4
17/03:00pm 13.6 6.3 7.2 65 3.1 ESE 35 43 19 23 1026.0 1026.0 0.4
17/02:30pm 13.8 6.3 7.8 67 3.0 ESE 37 46 20 25 1025.9 1025.9 0.4
17/02:00pm 13.7 5.9 6.8 63 3.3 ESE 37 43 20 23 1026.1 1026.1 0.4
17/01:30pm 13.7 5.5 6.6 62 3.4 ESE 39 44 21 24 1026.0 1026.0 0.4
17/01:00pm 13.7 5.6 7.2 65 3.2 ESE 39 44 21 24 1025.7 1025.7 0.4
17/12:30pm 13.7 6.1 7.7 67 3.0 ESE 37 46 20 25 1025.6 1025.6 0.4
17/12:00pm 14.0 7.1 7.1 63 3.4 ESE 33 41 18 22 1025.9 1025.9 0.4
17/11:30am 13.0 5.2 6.8 66 3.0 ESE 37 44 20 24 1025.7 1025.7 0.4
17/11:27am 13.1 5.4 7.3 68 2.8 ESE 37 43 20 23 1025.8 1025.8 0.4
17/11:00am 11.8 6.8 9.5 86 1.2 SSW 26 39 14 21 1026.2 1026.2 0.4
17/10:30am 10.1 4.6 9.2 94 0.4 SW 28 37 15 20 1026.4 1026.4 0.4
17/10:00am 9.4 2.8 8.6 95 0.4 SW 33 43 18 23 1025.7 1025.7 0.4
17/09:30am 9.2 2.2 8.4 95 0.4 SW 35 43 19 23 1025.9 1025.9 0.4
17/09:00am 9.1 1.7 8.3 95 0.4 SW 37 44 20 24 1025.8 1025.8 30.0
17/08:30am 8.9 1.8 8.0 94 0.4 SW 35 43 19 23 1025.7 1025.7 29.8
17/08:00am 8.7 0.7 7.6 93 0.5 SW 39 46 21 25 1025.1 1025.1 29.6
17/07:30am 8.6 1.4 7.5 93 0.5 SW 35 54 19 29 1025.4 1025.4 29.4
17/07:29am 8.4 1.1 7.2 92 0.6 SW 35 54 19 29 1025.3 1025.3 29.4
17/07:00am 8.5 1.2 7.3 92 0.6 SW 35 44 19 24 1024.8 1024.8 28.4
17/06:40am 8.8 2.9 7.4 91 0.7 SW 28 50 15 27 1024.0 1024.0 26.8
17/06:30am 9.1 3.6 7.7 91 0.7 SW 26 39 14 21 1024.6 1024.6 25.8
17/06:18am 9.5 2.7 7.9 90 0.8 SSW 33 44 18 24 1024.1 1024.1 25.2
17/06:07am 10.0 2.2 8.1 88 0.9 SW 39 48 21 26 1024.0 1024.0 24.8
17/06:00am 9.2 1.4 6.8 85 1.1 SW 37 48 20 26 1023.6 1023.6 24.8
17/05:30am 9.2 1.5 7.2 87 0.9 SW 37 48 20 26 1023.2 1023.2 24.8
17/05:00am 9.1 2.3 6.7 85 1.1 SW 32 41 17 22 1023.4 1023.4 24.4
17/04:30am 9.3 1.6 7.1 86 1.0 SSW 37 46 20 25 1023.1 1023.1 23.6
17/04:00am 9.0 0.8 6.4 84 1.2 SSW 39 52 21 28 1022.9 1022.9 23.2
17/03:57am 9.1 1.2 6.4 83 1.3 SSW 37 52 20 28 1022.9 1022.9 23.0
17/03:30am 9.4 1.8 5.8 78 1.6 SW 35 46 19 25 1022.9 1022.9 22.4
17/03:00am 9.6 2.2 5.2 74 2.0 SW 33 44 18 24 1023.0 1023.0 22.2
17/02:30am 9.7 1.6 5.1 73 2.1 SW 37 46 20 25 1022.7 1022.7 22.2
17/02:00am 9.7 2.1 5.7 76 1.8 SW 35 43 19 23 1022.8 1022.8 22.2
17/01:30am 9.7 2.2 6.2 79 1.6 SW 35 44 19 24 1023.0 1023.0 22.2
17/01:00am 8.8 3.5 6.6 86 1.0 W 24 33 13 18 1023.4 1023.4 22.2
17/12:30am 8.7 5.4 6.5 86 1.0 WSW 13 28 7 15 1023.9 1023.9 22.2
17/12:00am 8.8 4.7 6.3 84 1.1 WNW 17 26 9 14 1023.9 1023.9 21.8
 
Date/Time
EST
Temp
°C
App
Temp
°C
Dew
Point
°C
Rel
Hum
%
Delta-T
°C
Wind Press
QNH
hPa
Press
MSL
hPa
Rain since
9am
mm
Dir  Spd
km/h
Gust
km/h
Spd
kts
Gust
kts
16/11:30pm 8.6 5.6 6.2 85 1.1 W 11 17 6 9 1023.5 1023.5 21.4
16/11:00pm 8.8 4.4 6.6 86 1.0 WSW 19 28 10 15 1023.3 1023.3 20.8
16/10:30pm 8.8 3.3 6.1 83 1.2 SSW 24 32 13 17 1023.2 1023.2 20.4
16/10:00pm 8.9 0.5 5.8 81 1.4 SSW 39 57 21 31 1023.3 1023.3 20.0
16/09:30pm 9.4 0.8 4.8 73 2.1 SSW 39 63 21 34 1023.1 1023.1 19.4
16/09:26pm 9.2 0.1 4.0 70 2.3 SW 41 63 22 34 1023.1 1023.1 19.4
16/09:23pm 9.3 0.3 4.7 73 2.1 SW 41 63 22 34 1022.9 1022.9 19.4
16/09:00pm 9.3 3.2 6.7 84 1.2 SW 28 48 15 26 1023.0 1023.0 19.4
16/08:38pm 9.4 2.5 6.3 81 1.4 SSW 32 52 17 28 1022.9 1022.9 18.8
16/08:30pm 9.2 1.7 6.5 83 1.3 SW 35 52 19 28 1023.0 1023.0 18.4
16/08:00pm 9.6 3.3 7.5 87 1.0 SW 30 39 16 21 1022.5 1022.5 17.2
16/07:30pm 9.3 0.8 6.9 85 1.1 SW 41 54 22 29 1022.1 1022.1 16.4
16/07:00pm 8.9 0.2 6.2 83 1.2 SSW 41 57 22 31 1021.9 1021.9 15.4
16/06:42pm 9.4 0.7 7.5 88 0.9 SSW 43 61 23 33 1021.4 1021.4 14.6
16/06:30pm 9.0 0.1 7.5 90 0.7 SW 44 56 24 30 1021.0 1021.0 13.8
16/06:07pm 9.0 -1.1 7.6 91 0.7 SSW 50 69 27 37 1020.5 1020.5 12.6
16/06:00pm 8.8 -1.7 7.4 91 0.7 SSW 52 69 28 37 1020.5 1020.5 12.4
16/05:39pm 9.2 0.6 8.1 93 0.5 SW 43 61 23 33 1019.9 1019.9 11.0
16/05:30pm 9.4 0.8 8.3 93 0.5 SW 43 54 23 29 1019.9 1019.9 10.4
16/05:16pm 9.8 1.3 8.7 93 0.5 SW 43 57 23 31 1019.4 1019.4 9.0
16/05:00pm 10.1 0.7 8.9 92 0.6 S 48 63 26 34 1019.2 1019.2 7.8
16/04:37pm 10.4 1.8 9.0 91 0.7 SSW 44 63 24 34 1018.5 1018.4 6.2
16/04:30pm 9.9 1.3 8.0 88 0.9 SSW 43 54 23 29 1018.6 1018.5 5.8
16/04:00pm 10.5 1.3 8.1 85 1.2 SSW 46 59 25 32 1018.4 1018.3 4.4
16/03:30pm 10.9 1.0 8.1 83 1.4 S 50 61 27 33 1017.6 1017.5 3.2
16/03:00pm 10.8 1.0 8.7 87 1.0 S 50 63 27 34 1017.3 1017.2 2.4
16/02:30pm 11.0 0.0 8.6 85 1.2 SSW 56 69 30 37 1016.4 1016.3 0.6
16/02:00pm 12.5 1.5 9.1 80 1.7 S 57 70 31 38 1015.8 1015.7 0.0
16/01:35pm 12.6 2.8 10.1 85 1.3 S 52 70 28 38 1015.4 1015.3 0.0
16/01:30pm 13.0 4.0 10.4 84 1.4 S 48 61 26 33 1015.5 1015.4 0.0
16/01:00pm 14.0 5.6 9.6 75 2.3 S 44 57 24 31 1015.4 1015.3 0.0
16/12:30pm 14.3 5.2 9.9 75 2.3 S 48 61 26 33 1014.9 1014.8 0.0
16/12:00pm 14.7 4.7 9.5 71 2.7 S 52 61 28 33 1015.0 1014.9 0.0
16/11:30am 15.3 6.5 9.4 68 3.0 S 46 57 25 31 1014.5 1014.4 0.0
16/11:00am 17.4 8.5 10.5 64 3.7 S 48 59 26 32 1014.6 1014.5 0.0
16/10:30am 15.3 5.7 9.4 68 3.0 S 50 65 27 35 1014.6 1014.5 0.0
16/10:00am 15.2 6.2 10.4 73 2.5 S 48 59 26 32 1014.8 1014.7 0.0
16/09:30am 15.0 4.8 10.2 73 2.5 S 54 65 29 35 1014.7 1014.6 0.0
16/09:00am 15.2 6.6 11.8 80 1.8 SSE 48 63 26 34 1014.7 1014.6 0.0
16/08:30am 16.3 8.6 13.4 83 1.6 SSE 46 54 25 29 1014.1 1014.0 0.0
16/08:00am 16.4 8.9 12.8 79 2.0 S 44 56 24 30 1013.6 1013.5 0.0
16/07:30am 17.2 10.0 13.7 80 2.0 S 44 59 24 32 1013.1 1013.0 0.0
16/07:20am 17.7 11.7 13.4 76 2.4 SSW 37 54 20 29 1013.1 1013.0 0.0
16/07:14am 18.0 13.0 10.9 63 3.8 SW 28 41 15 22 1012.9 1012.9 0.0
16/07:00am 18.5 14.7 7.6 49 5.6 NW 17 22 9 12 1012.2 1012.2 0.0
16/06:30am 18.3 13.7 8.0 51 5.3 NNW 22 26 12 14 1011.9 1011.9 0.0
16/06:00am 18.4 16.7 12.4 68 3.3 NW 13 20 7 11 1011.7 1011.7 0.0
16/05:30am 18.4 16.2 12.2 67 3.4 WNW 15 30 8 16 1011.4 1011.4 0.0
16/05:00am 19.6 13.4 10.0 54 5.2 NNW 33 43 18 23 1010.7 1010.7 0.0
16/04:30am 19.6 14.1 10.6 56 4.9 N 30 39 16 21 1010.6 1010.6 0.0
16/04:00am 18.7 15.7 12.5 67 3.5 NNW 20 28 11 15 1010.9 1010.9 0.0
16/03:30am 19.5 15.1 7.6 46 6.1 N 20 24 11 13 1011.4 1011.4 0.0
16/03:00am 20.5 15.2 1.9 29 8.6 NNW 19 22 10 12 1012.1 1012.1 0.0
16/02:30am 20.6 15.2 1.0 27 8.9 NNW 19 22 10 12 1012.5 1012.5 0.0
16/02:00am 20.0 15.0 3.7 34 7.8 NW 19 22 10 12 1012.9 1012.9 0.0
16/01:30am 20.7 16.3 2.5 30 8.5 NW 15 19 8 10 1013.8 1013.7 0.0
16/01:00am 20.8 16.2 1.6 28 8.8 NNW 15 20 8 11 1014.0 1013.9 0.0
16/12:30am 19.3 15.8 7.1 45 6.2 NW 15 19 8 10 1014.3 1014.2 0.0
16/12:00am 19.7 16.0 6.1 41 6.8 NW 15 19 8 10 1014.4 1014.3 0.0
 
Date/Time
EST
Temp
°C
App
Temp
°C
Dew
Point
°C
Rel
Hum
%
Delta-T
°C
Wind Press
QNH
hPa
Press
MSL
hPa
Rain since
9am
mm
Dir  Spd
km/h
Gust
km/h
Spd
kts
Gust
kts
15/11:30pm 20.0 15.9 4.1 35 7.6 NNW 15 17 8 9 1014.5 1014.4 0.0
15/11:00pm 20.1 15.7 6.5 41 6.8 NW 19 22 10 12 1014.5 1014.4 0.0
15/10:30pm 19.6 15.0 8.0 47 6.0 NW 22 26 12 14 1014.7 1014.6 0.0
15/10:00pm 19.3 16.0 11.6 61 4.2 NW 20 28 11 15 1014.9 1014.8 0.0
15/09:30pm 18.8 16.8 13.9 73 2.8 NNW 17 22 9 12 1015.0 1014.9 0.0
15/09:00pm 19.0 16.9 15.3 79 2.2 NNW 20 28 11 15 1015.1 1015.0 0.0
15/08:30pm 19.3 17.0 15.6 79 2.2 NNE 22 30 12 16 1015.3 1015.2 0.0
15/08:00pm 19.3 16.8 15.2 77 2.4 N 22 28 12 15 1015.2 1015.1 0.0
15/07:30pm 19.8 16.3 13.3 66 3.7 N 24 28 13 15 1015.5 1015.4 0.0
15/07:00pm 20.5 17.8 10.3 52 5.5 N 15 19 8 10 1015.3 1015.2 0.0
15/06:30pm 22.6 18.9 4.6 31 8.9 NNW 13 15 7 8 1015.3 1015.2 0.0
15/06:00pm 22.0 18.3 7.8 40 7.4 NNW 17 20 9 11 1015.1 1015.0 0.0
15/05:30pm 19.9 18.2 13.6 67 3.6 NNW 15 22 8 12 1014.8 1014.7 0.0
15/05:00pm 19.4 16.9 14.2 72 3.0 N 20 28 11 15 1014.8 1014.7 0.0
15/04:30pm 19.2 15.8 13.8 71 3.1 N 24 32 13 17 1015.1 1015.0 0.0
15/04:00pm 19.4 16.4 13.6 69 3.3 N 22 28 12 15 1015.1 1015.0 0.0
15/03:30pm 19.9 16.7 13.1 65 3.9 N 22 28 12 15 1015.0 1014.9 0.0
15/03:00pm 19.9 17.4 13.6 67 3.6 N 19 26 10 14 1015.4 1015.3 0.0
15/02:30pm 19.7 15.8 13.4 67 3.6 N 26 32 14 17 1015.6 1015.5 0.0
15/02:00pm 19.4 15.7 12.7 65 3.8 NNE 24 32 13 17 1015.9 1015.8 0.0
15/01:30pm 19.2 16.2 13.6 70 3.2 NNE 22 26 12 14 1016.3 1016.2 0.0
15/01:00pm 20.0 14.5 10.7 55 5.1 N 30 37 16 20 1016.5 1016.4 0.0
15/12:30pm 20.8 15.0 7.8 43 6.7 N 28 35 15 19 1017.0 1016.9 0.0
15/12:00pm 20.0 15.9 10.1 53 5.3 N 22 28 12 15 1017.4 1017.3 0.0
15/11:30am 21.3 17.6 10.2 49 6.0 N 20 28 11 15 1017.9 1017.8 0.0
15/11:00am 19.7 16.5 9.9 53 5.2 N 17 24 9 13 1018.3 1018.2 0.0
15/10:30am 21.3 16.6 5.2 35 8.0 N 19 24 10 13 1018.9 1018.9 0.0
15/10:00am 20.0 16.1 7.1 43 6.5 NNW 17 22 9 12 1019.2 1019.2 0.0
15/09:30am 18.1 15.5 9.2 56 4.7 N 13 19 7 10 1019.6 1019.6 0.0
15/09:00am 18.1 15.7 7.2 49 5.5 NNW 9 13 5 7 1019.7 1019.7 0.0

Other formats

Comma delimited format used in spreadsheet applications
http://www.bom.gov.au/fwo/IDN60801/IDN60801.94939.axf

JavaScript Object Notation format (JSON) in row-major order
http://www.bom.gov.au/fwo/IDN60801/IDN60801.94939.json

Data quality

Most of these data are generated automatically and are frequently updated. Quality checks on data are not normally performed. It is possible for incorrect values to appear. Refer to information at About Latest Weather Observations and please check the disclaimer before using these data.